BAW9170 EGFF-EGLL
Flight info
| Callsign | BAW9170 |
|---|---|
| Flight time | 0h 26m |
| Altitude | 13000 |
| Route | BCN1A BCN P4 HAWFA L607 YORQI N21 CAWZE P2 SIRIC SIRIC1H |
| Aircraft | A388/J-SADE2E3FGHIJ3J4J5M1RWXY/LB1D1 |
Departure
| Time | 2026-05-05 16:08 |
|---|---|
| Airport | Cardiff International Airport (EGFF) |
Arrival
| Time | 2026-05-05 16:34 |
|---|---|
| Airport | London Heathrow Airport (EGLL) |
| Time | Latitude | Longitude | Altitude | Speed | Heading |
|---|---|---|---|---|---|
| 2026-05-05 15:49 | 51.40211 | -3.34695 | 228 ft | 0 kts | 297° |
| 2026-05-05 15:59 | 51.40209 | -3.34688 | 231 ft | 3 kts | 294° |
| 2026-05-05 15:59 | 51.40204 | -3.34655 | 231 ft | 4 kts | 227° |
| 2026-05-05 16:00 | 51.40226 | -3.34639 | 228 ft | 4 kts | 196° |
| 2026-05-05 16:00 | 51.40239 | -3.34632 | 230 ft | 2 kts | 206° |
| 2026-05-05 16:00 | 51.40239 | -3.34633 | 230 ft | 0 kts | 206° |
| 2026-05-05 16:04 | 51.40215 | -3.34653 | 227 ft | 13 kts | 207° |
| 2026-05-05 16:04 | 51.40106 | -3.34741 | 229 ft | 28 kts | 206° |
| 2026-05-05 16:04 | 51.40007 | -3.34808 | 229 ft | 9 kts | 163° |
| 2026-05-05 16:04 | 51.39968 | -3.34706 | 227 ft | 10 kts | 128° |
| 2026-05-05 16:05 | 51.39927 | -3.34606 | 229 ft | 15 kts | 101° |
| 2026-05-05 16:05 | 51.39839 | -3.34310 | 226 ft | 44 kts | 117° |
| 2026-05-05 16:05 | 51.39725 | -3.33944 | 226 ft | 20 kts | 116° |
| 2026-05-05 16:05 | 51.39657 | -3.33731 | 226 ft | 23 kts | 117° |
| 2026-05-05 16:06 | 51.39576 | -3.33476 | 229 ft | 29 kts | 117° |
| 2026-05-05 16:06 | 51.39480 | -3.33172 | 227 ft | 32 kts | 117° |
| 2026-05-05 16:06 | 51.39330 | -3.32898 | 227 ft | 31 kts | 136° |
| 2026-05-05 16:06 | 51.39237 | -3.32810 | 225 ft | 11 kts | 205° |
| 2026-05-05 16:07 | 51.39211 | -3.32898 | 227 ft | 14 kts | 291° |
| 2026-05-05 16:07 | 51.39223 | -3.32942 | 228 ft | 0 kts | 296° |
| 2026-05-05 16:07 | 51.39330 | -3.33283 | 228 ft | 80 kts | 296° |
| 2026-05-05 16:07 | 51.39708 | -3.34475 | 234 ft | 152 kts | 296° |
| 2026-05-05 16:08 | 51.40213 | -3.36082 | 673 ft | 167 kts | 294° |
| 2026-05-05 16:08 | 51.40698 | -3.37746 | 1385 ft | 165 kts | 295° |
| 2026-05-05 16:08 | 51.41146 | -3.39414 | 2060 ft | 164 kts | 295° |
| 2026-05-05 16:08 | 51.41623 | -3.41130 | 2734 ft | 172 kts | 298° |
| 2026-05-05 16:09 | 51.42173 | -3.42862 | 3467 ft | 176 kts | 300° |
| 2026-05-05 16:09 | 51.42745 | -3.44612 | 4222 ft | 178 kts | 300° |
| 2026-05-05 16:09 | 51.43359 | -3.46332 | 4962 ft | 179 kts | 314° |
| 2026-05-05 16:09 | 51.44382 | -3.47380 | 5645 ft | 176 kts | 340° |
| 2026-05-05 16:10 | 51.45549 | -3.47958 | 6366 ft | 176 kts | 345° |
| 2026-05-05 16:10 | 51.46759 | -3.48376 | 6953 ft | 181 kts | 353° |
| 2026-05-05 16:10 | 51.48072 | -3.48319 | 7274 ft | 200 kts | 8° |
| 2026-05-05 16:10 | 51.49463 | -3.47633 | 7464 ft | 219 kts | 21° |
| 2026-05-05 16:11 | 51.50873 | -3.46491 | 7603 ft | 236 kts | 27° |
| 2026-05-05 16:11 | 51.55677 | -3.41957 | 9420 ft | 279 kts | 28° |
| 2026-05-05 16:12 | 51.57359 | -3.40388 | 10302 ft | 282 kts | 28° |
| 2026-05-05 16:12 | 51.61066 | -3.36971 | 10914 ft | 332 kts | 28° |
| 2026-05-05 16:13 | 51.67199 | -3.30890 | 12896 ft | 357 kts | 43° |
| 2026-05-05 16:13 | 51.68691 | -3.27663 | 13005 ft | 370 kts | 62° |
| 2026-05-05 16:13 | 51.69492 | -3.23612 | 13010 ft | 387 kts | 81° |
| 2026-05-05 16:14 | 51.68649 | -3.15243 | 13013 ft | 382 kts | 118° |
| 2026-05-05 16:14 | 51.65702 | -3.08117 | 13015 ft | 385 kts | 126° |
| 2026-05-05 16:15 | 51.62692 | -3.01054 | 13015 ft | 382 kts | 124° |
| 2026-05-05 16:15 | 51.59816 | -2.93884 | 13013 ft | 382 kts | 123° |
| 2026-05-05 16:16 | 51.57392 | -2.86306 | 13006 ft | 380 kts | 109° |
| 2026-05-05 16:16 | 51.56011 | -2.78135 | 12986 ft | 378 kts | 105° |
| 2026-05-05 16:17 | 51.54640 | -2.69958 | 12989 ft | 380 kts | 105° |
| 2026-05-05 16:17 | 51.53912 | -2.65671 | 12985 ft | 376 kts | 104° |
| 2026-05-05 16:18 | 51.53165 | -2.57614 | 12985 ft | 375 kts | 96° |
| 2026-05-05 16:18 | 51.52901 | -2.53449 | 12985 ft | 375 kts | 96° |
| 2026-05-05 16:18 | 51.52278 | -2.45200 | 12985 ft | 375 kts | 102° |
| 2026-05-05 16:19 | 51.51551 | -2.41186 | 12983 ft | 375 kts | 111° |
| 2026-05-05 16:19 | 51.50432 | -2.37358 | 12982 ft | 373 kts | 118° |
| 2026-05-05 16:19 | 51.47943 | -2.30046 | 12978 ft | 374 kts | 118° |
| 2026-05-05 16:20 | 51.45497 | -2.22755 | 12974 ft | 374 kts | 118° |
| 2026-05-05 16:20 | 51.43027 | -2.15423 | 12970 ft | 374 kts | 118° |
| 2026-05-05 16:21 | 51.40553 | -2.08107 | 12967 ft | 374 kts | 118° |
| 2026-05-05 16:22 | 51.37365 | -1.96779 | 12969 ft | 373 kts | 103° |
| 2026-05-05 16:22 | 51.36680 | -1.88546 | 12967 ft | 374 kts | 96° |
| 2026-05-05 16:23 | 51.36090 | -1.80279 | 12963 ft | 374 kts | 96° |
| 2026-05-05 16:23 | 51.35786 | -1.76144 | 12963 ft | 374 kts | 96° |
| 2026-05-05 16:23 | 51.35177 | -1.67888 | 12958 ft | 374 kts | 96° |
| 2026-05-05 16:24 | 51.34870 | -1.63750 | 12957 ft | 374 kts | 96° |
| 2026-05-05 16:24 | 51.34562 | -1.59615 | 12957 ft | 374 kts | 96° |
| 2026-05-05 16:24 | 51.33943 | -1.51370 | 12954 ft | 374 kts | 96° |
| 2026-05-05 16:25 | 51.33630 | -1.47228 | 12952 ft | 374 kts | 96° |
| 2026-05-05 16:25 | 51.33318 | -1.39034 | 12881 ft | 363 kts | 79° |
| 2026-05-05 16:25 | 51.34016 | -1.35257 | 12694 ft | 348 kts | 70° |
| 2026-05-05 16:26 | 51.35535 | -1.28031 | 11489 ft | 339 kts | 70° |
| 2026-05-05 16:26 | 51.37010 | -1.20923 | 10325 ft | 332 kts | 70° |
| 2026-05-05 16:27 | 51.37709 | -1.17496 | 10161 ft | 315 kts | 71° |
| 2026-05-05 16:27 | 51.38374 | -1.14247 | 10017 ft | 300 kts | 70° |
| 2026-05-05 16:27 | 51.39008 | -1.11145 | 9828 ft | 288 kts | 70° |
| 2026-05-05 16:27 | 51.39619 | -1.08096 | 9398 ft | 287 kts | 70° |
| 2026-05-05 16:28 | 51.40232 | -1.05060 | 8920 ft | 286 kts | 71° |
| 2026-05-05 16:28 | 51.40845 | -1.02037 | 8459 ft | 286 kts | 70° |
| 2026-05-05 16:28 | 51.41473 | -0.98899 | 7991 ft | 310 kts | 70° |
| 2026-05-05 16:28 | 51.42159 | -0.95544 | 7505 ft | 319 kts | 71° |
| 2026-05-05 16:29 | 51.42829 | -0.92257 | 7013 ft | 304 kts | 70° |
| 2026-05-05 16:29 | 51.43463 | -0.89114 | 6558 ft | 290 kts | 71° |
| 2026-05-05 16:29 | 51.44078 | -0.86097 | 6054 ft | 280 kts | 70° |
| 2026-05-05 16:29 | 51.44664 | -0.83173 | 5522 ft | 271 kts | 70° |
| 2026-05-05 16:30 | 51.45279 | -0.80360 | 5013 ft | 264 kts | 65° |
| 2026-05-05 16:30 | 51.46102 | -0.77760 | 4421 ft | 259 kts | 58° |
| 2026-05-05 16:30 | 51.47206 | -0.75541 | 3651 ft | 258 kts | 49° |
| 2026-05-05 16:30 | 51.48073 | -0.73064 | 2976 ft | 255 kts | 79° |
| 2026-05-05 16:31 | 51.47866 | -0.70243 | 2671 ft | 250 kts | 105° |
| 2026-05-05 16:31 | 51.47456 | -0.67732 | 2715 ft | 220 kts | 96° |
| 2026-05-05 16:31 | 51.47394 | -0.65475 | 2701 ft | 188 kts | 81° |
| 2026-05-05 16:31 | 51.47574 | -0.63480 | 2413 ft | 168 kts | 84° |
| 2026-05-05 16:32 | 51.47619 | -0.61775 | 2291 ft | 148 kts | 84° |
| 2026-05-05 16:32 | 51.47687 | -0.60170 | 2056 ft | 140 kts | 82° |
| 2026-05-05 16:32 | 51.47738 | -0.58608 | 1794 ft | 142 kts | 87° |
| 2026-05-05 16:32 | 51.47695 | -0.57048 | 1542 ft | 139 kts | 89° |
| 2026-05-05 16:33 | 51.47688 | -0.55481 | 1244 ft | 142 kts | 86° |
| 2026-05-05 16:33 | 51.47700 | -0.53908 | 900 ft | 140 kts | 87° |
| 2026-05-05 16:33 | 51.47748 | -0.52319 | 566 ft | 145 kts | 87° |
| 2026-05-05 16:33 | 51.47737 | -0.50708 | 354 ft | 146 kts | 85° |
| 2026-05-05 16:34 | 51.47753 | -0.49095 | 180 ft | 146 kts | 86° |
| 2026-05-05 16:34 | 51.47757 | -0.47489 | 93 ft | 131 kts | 89° |
| 2026-05-05 16:34 | 51.47757 | -0.46387 | 96 ft | 54 kts | 88° |
| 2026-05-05 16:34 | 51.47666 | -0.46144 | 92 ft | 9 kts | 161° |
| 2026-05-05 16:35 | 51.47593 | -0.46139 | 94 ft | 6 kts | 253° |
| 2026-05-05 16:35 | 51.47592 | -0.46335 | 93 ft | 32 kts | 269° |
| 2026-05-05 16:35 | 51.47591 | -0.46609 | 91 ft | 22 kts | 270° |
| 2026-05-05 16:35 | 51.47585 | -0.46889 | 94 ft | 27 kts | 262° |
| 2026-05-05 16:36 | 51.47585 | -0.47290 | 94 ft | 37 kts | 270° |
| 2026-05-05 16:36 | 51.47571 | -0.47395 | 96 ft | 5 kts | 183° |
| 2026-05-05 16:36 | 51.47400 | -0.47356 | 92 ft | 29 kts | 183° |
| 2026-05-05 16:36 | 51.47195 | -0.47353 | 94 ft | 31 kts | 180° |
| 2026-05-05 16:37 | 51.47094 | -0.47352 | 91 ft | 32 kts | 179° |
| 2026-05-05 16:37 | 51.46991 | -0.47351 | 92 ft | 12 kts | 179° |
| 2026-05-05 16:37 | 51.46931 | -0.47300 | 95 ft | 7 kts | 86° |
| 2026-05-05 16:37 | 51.46938 | -0.47219 | 95 ft | 4 kts | 89° |
| 2026-05-05 16:38 | 51.46938 | -0.47198 | 95 ft | 0 kts | 89° |